Time;durP1;ratioP1;P1;durP2;ratioP2;P2;SDS_P1;SDS_P2;PMS_P1;PMS_P2;Temp;Humidity;BMP_temperature;BMP_pressure;BME280_temperature;BME280_humidity;BME280_pressure;Samples;Min_cycle;Max_cycle;Signal;HPM_P1;HPM_P2
2023/06/19 00:00:00;;;;;;;4.50;4.20;;;21.70;99.90;;;;;;5101243;27;20265;-78
2023/06/19 00:02:27;;;;;;;4.30;4.00;;;21.70;99.90;;;;;;5100501;27;20686;-76
2023/06/19 00:04:54;;;;;;;4.78;4.40;;;21.60;99.90;;;;;;5100372;27;20200;-76
2023/06/19 00:07:22;;;;;;;4.47;4.18;;;21.60;99.90;;;;;;5104437;27;20307;-76
2023/06/19 00:09:49;;;;;;;4.80;4.40;;;21.50;99.90;;;;;;5102182;27;20229;-76
2023/06/19 00:12:16;;;;;;;4.25;3.95;;;21.40;99.90;;;;;;5098653;28;20217;-77
2023/06/19 00:14:43;;;;;;;5.85;4.40;;;21.40;99.90;;;;;;5104945;27;20296;-77
2023/06/19 00:17:10;;;;;;;4.82;4.43;;;21.30;99.90;;;;;;5097115;27;20284;-78
2023/06/19 00:19:37;;;;;;;4.97;4.55;;;21.30;99.90;;;;;;5102789;27;20197;-77
2023/06/19 00:22:05;;;;;;;4.30;4.00;;;21.30;99.90;;;;;;5103878;27;20242;-76
2023/06/19 00:24:33;;;;;;;4.80;4.30;;;21.20;99.90;;;;;;5096425;27;20197;-76
2023/06/19 00:27:02;;;;;;;5.18;4.78;;;21.20;99.90;;;;;;5100594;27;20221;-76
2023/06/19 00:29:29;;;;;;;4.47;4.18;;;21.20;99.90;;;;;;5102479;27;20207;-77
2023/06/19 00:31:56;;;;;;;4.70;4.40;;;21.10;99.90;;;;;;5122107;27;20290;-76
2023/06/19 00:34:24;;;;;;;5.50;5.00;;;21.10;99.90;;;;;;5102524;27;20201;-77
2023/06/19 00:36:51;;;;;;;4.88;4.47;;;21.10;99.90;;;;;;5103085;27;20197;-76
2023/06/19 00:39:18;;;;;;;5.07;4.68;;;21.00;99.90;;;;;;5099300;27;20269;-76
2023/06/19 00:41:47;;;;;;;4.70;4.35;;;20.90;99.90;;;;;;5100377;27;20262;-76
2023/06/19 00:44:15;;;;;;;4.95;4.55;;;20.90;99.90;;;;;;5100809;27;20266;-76
2023/06/19 00:46:42;;;;;;;5.28;4.88;;;20.90;99.90;;;;;;5101841;27;20232;-78
2023/06/19 00:49:09;;;;;;;5.30;4.90;;;20.80;99.90;;;;;;5110498;27;20229;-77
2023/06/19 00:51:36;;;;;;;4.82;4.43;;;20.80;99.90;;;;;;5107770;27;20237;-76
2023/06/19 00:54:04;;;;;;;4.80;4.50;;;20.70;99.90;;;;;;5103552;27;20274;-77
2023/06/19 00:56:31;;;;;;;5.05;4.65;;;20.70;99.90;;;;;;5099035;27;20803;-76
2023/06/19 00:59:00;;;;;;;4.68;4.28;;;20.70;99.90;;;;;;5101251;27;20716;-77
2023/06/19 01:01:27;;;;;;;4.32;3.88;;;20.60;99.90;;;;;;5098534;27;20234;-76
2023/06/19 01:03:55;;;;;;;5.78;5.28;;;20.60;99.90;;;;;;5108268;27;20284;-77
2023/06/19 01:06:25;;;;;;;4.90;4.47;;;20.50;99.90;;;;;;5104493;27;20458;-77
2023/06/19 01:08:59;;;;;;;5.35;4.95;;;20.50;99.90;;;;;;5107529;27;20225;-77
2023/06/19 01:11:33;;;;;;;5.00;4.60;;;20.60;99.90;;;;;;5101894;27;20232;-77
2023/06/19 01:14:04;;;;;;;5.22;4.72;;;20.50;99.90;;;;;;5102135;27;20241;-76
2023/06/19 01:16:32;;;;;;;4.60;4.30;;;20.50;99.90;;;;;;5105120;27;20296;-77
2023/06/19 01:18:59;;;;;;;5.93;5.43;;;20.50;99.90;;;;;;5108786;27;20278;-78
2023/06/19 01:21:26;;;;;;;5.72;5.15;;;20.40;99.90;;;;;;5104648;27;20249;-76
2023/06/19 01:23:55;;;;;;;5.32;4.93;;;20.40;99.90;;;;;;5106059;27;20194;-76
2023/06/19 01:26:27;;;;;;;5.90;5.40;;;20.30;99.90;;;;;;5108970;27;20688;-77
2023/06/19 01:28:55;;;;;;;5.30;4.90;;;20.30;99.90;;;;;;5101559;27;20244;-76
2023/06/19 01:31:30;;;;;;;5.18;4.78;;;20.30;99.90;;;;;;5103857;28;20283;-77
2023/06/19 01:33:58;;;;;;;6.47;5.13;;;20.20;99.90;;;;;;5110556;27;20265;-77
2023/06/19 01:36:26;;;;;;;5.75;5.30;;;20.20;99.90;;;;;;5103186;28;20900;-77
2023/06/19 01:38:58;;;;;;;5.57;5.18;;;20.10;99.90;;;;;;5108238;28;20252;-76
2023/06/19 01:41:26;;;;;;;5.63;5.22;;;20.00;99.90;;;;;;5107335;28;20200;-77
2023/06/19 01:43:54;;;;;;;5.47;5.07;;;19.90;99.90;;;;;;5109081;28;20218;-77
2023/06/19 01:46:21;;;;;;;5.60;5.15;;;19.90;99.90;;;;;;5106573;28;20228;-76
2023/06/19 01:48:48;;;;;;;5.18;4.78;;;20.00;99.90;;;;;;5102007;27;20228;-77
2023/06/19 01:51:16;;;;;;;5.00;4.60;;;20.00;99.90;;;;;;5105220;28;20228;-77
2023/06/19 01:53:43;;;;;;;5.40;5.00;;;20.10;99.90;;;;;;5102369;28;20759;-76
2023/06/19 01:56:12;;;;;;;5.00;4.70;;;20.10;99.90;;;;;;5110050;28;20201;-77
2023/06/19 01:58:39;;;;;;;5.82;5.32;;;20.10;99.90;;;;;;5100158;28;20222;-77
2023/06/19 02:01:06;;;;;;;5.85;5.30;;;20.10;99.90;;;;;;5102343;28;20287;-77
2023/06/19 02:03:32;;;;;;;5.63;5.13;;;20.10;99.90;;;;;;5102155;28;20870;-75
2023/06/19 02:05:59;;;;;;;4.90;4.50;;;20.10;99.90;;;;;;5097736;28;20225;-77
2023/06/19 02:08:26;;;;;;;5.10;4.70;;;20.10;99.90;;;;;;5106104;28;20251;-77
2023/06/19 02:10:53;;;;;;;5.13;4.72;;;20.00;99.90;;;;;;5103586;27;20205;-77
2023/06/19 02:13:21;;;;;;;5.38;4.88;;;20.10;99.90;;;;;;5106629;27;20316;-76
2023/06/19 02:15:49;;;;;;;5.05;4.65;;;20.10;99.90;;;;;;5111919;28;20291;-78
2023/06/19 02:18:15;;;;;;;5.22;4.82;;;20.10;99.90;;;;;;5108740;28;20252;-77
2023/06/19 02:20:42;;;;;;;6.00;5.50;;;20.10;99.90;;;;;;5103995;27;20667;-73
2023/06/19 02:23:09;;;;;;;5.93;5.35;;;20.10;99.90;;;;;;5122175;27;20235;-76
2023/06/19 02:25:36;;;;;;;5.72;5.28;;;20.00;99.90;;;;;;5119517;27;20209;-76
2023/06/19 02:28:04;;;;;;;6.00;5.50;;;19.90;99.90;;;;;;5106536;27;20276;-76
2023/06/19 02:30:32;;;;;;;5.78;5.28;;;19.90;99.90;;;;;;5112195;27;20316;-76
2023/06/19 02:32:59;;;;;;;5.35;4.95;;;19.90;99.90;;;;;;5107039;27;20308;-76
2023/06/19 02:35:26;;;;;;;5.25;4.85;;;19.90;99.90;;;;;;5107804;27;20236;-77
2023/06/19 02:37:53;;;;;;;5.70;5.30;;;19.90;99.90;;;;;;5107558;27;20269;-76
2023/06/19 02:40:20;;;;;;;5.03;4.65;;;19.90;99.90;;;;;;5111861;27;20284;-78
2023/06/19 02:42:47;;;;;;;5.03;4.65;;;19.90;99.90;;;;;;5112495;27;20193;-76
2023/06/19 02:45:15;;;;;;;5.93;5.45;;;19.90;99.90;;;;;;5111660;27;20265;-76
2023/06/19 02:47:43;;;;;;;5.35;4.95;;;19.90;99.90;;;;;;5107043;27;20224;-76
2023/06/19 02:50:10;;;;;;;5.50;5.10;;;19.90;99.90;;;;;;5107894;27;20205;-77
2023/06/19 02:52:37;;;;;;;5.50;5.05;;;19.80;99.90;;;;;;5109128;27;20828;-77
2023/06/19 02:55:07;;;;;;;5.72;5.25;;;19.80;99.90;;;;;;5105866;27;20253;-75
2023/06/19 02:57:34;;;;;;;5.18;4.78;;;19.80;99.90;;;;;;5106339;27;20217;-75
2023/06/19 03:00:01;;;;;;;7.38;5.38;;;19.80;99.90;;;;;;5111715;27;20197;-77
2023/06/19 03:02:28;;;;;;;5.20;4.75;;;19.70;99.90;;;;;;5114861;27;20237;-77
2023/06/19 03:04:56;;;;;;;5.15;4.75;;;19.70;99.90;;;;;;5101417;27;20314;-77
2023/06/19 03:07:28;;;;;;;5.30;4.90;;;19.60;99.90;;;;;;5109861;27;20220;-77
2023/06/19 03:09:55;;;;;;;5.72;5.28;;;19.60;99.90;;;;;;5103488;27;20201;-76
2023/06/19 03:12:22;;;;;;;6.10;5.50;;;19.60;99.90;;;;;;5110787;27;20758;-77
2023/06/19 03:14:49;;;;;;;5.63;5.20;;;19.60;99.90;;;;;;5106464;27;20244;-76
2023/06/19 03:17:16;;;;;;;6.03;5.43;;;19.60;99.90;;;;;;5106408;27;20213;-76
2023/06/19 03:19:43;;;;;;;5.28;4.88;;;19.60;99.90;;;;;;5107626;27;20619;-77
2023/06/19 03:22:11;;;;;;;5.90;5.50;;;19.60;99.90;;;;;;5109715;27;20200;-76
2023/06/19 03:24:38;;;;;;;6.32;5.75;;;19.60;99.90;;;;;;5112141;27;20280;-76
2023/06/19 03:27:05;;;;;;;6.57;6.00;;;19.50;99.90;;;;;;5110088;27;20752;-77
2023/06/19 03:29:32;;;;;;;5.68;5.28;;;19.50;99.90;;;;;;5106144;27;20278;-77
2023/06/19 03:31:59;;;;;;;7.15;5.65;;;19.50;99.90;;;;;;5104359;27;20235;-77
2023/06/19 03:34:26;;;;;;;5.80;5.30;;;19.50;99.90;;;;;;5110755;27;20307;-77
2023/06/19 03:36:53;;;;;;;5.53;5.13;;;19.50;99.90;;;;;;5104910;27;20625;-77
2023/06/19 03:39:22;;;;;;;5.78;5.38;;;19.50;99.90;;;;;;5118636;27;20218;-77
2023/06/19 03:41:48;;;;;;;5.75;5.28;;;19.50;99.90;;;;;;5107511;27;20667;-76
2023/06/19 03:44:15;;;;;;;5.75;5.32;;;19.50;99.90;;;;;;5107057;27;20193;-77
2023/06/19 03:46:43;;;;;;;5.70;5.30;;;19.60;99.90;;;;;;5109713;27;20204;-77
2023/06/19 03:49:10;;;;;;;5.70;5.30;;;19.60;99.90;;;;;;5104515;27;20214;-76
2023/06/19 03:51:37;;;;;;;6.30;5.80;;;19.60;99.90;;;;;;5111636;27;20249;-77
2023/06/19 03:54:04;;;;;;;6.10;5.60;;;19.60;99.90;;;;;;5103109;27;20256;-78
2023/06/19 03:56:32;;;;;;;5.85;5.40;;;19.70;99.90;;;;;;5111693;27;20316;-77
2023/06/19 03:58:59;;;;;;;5.68;5.28;;;19.80;99.90;;;;;;5107857;27;20221;-76
2023/06/19 04:01:26;;;;;;;6.40;5.85;;;19.90;99.90;;;;;;5106572;27;20805;-76
2023/06/19 04:03:53;;;;;;;6.10;5.60;;;20.10;99.90;;;;;;5112268;27;20235;-77
2023/06/19 04:06:20;;;;;;;7.40;6.60;;;20.10;99.90;;;;;;5109623;27;20261;-77
2023/06/19 04:08:47;;;;;;;6.03;5.53;;;20.30;99.90;;;;;;5108037;27;20272;-77
2023/06/19 04:11:14;;;;;;;5.97;5.47;;;20.30;99.90;;;;;;5101470;27;20234;-78
2023/06/19 04:13:42;;;;;;;6.40;5.90;;;20.40;99.90;;;;;;5105991;27;20240;-77
2023/06/19 04:16:09;;;;;;;6.10;5.60;;;20.30;99.90;;;;;;5120158;27;20197;-77
2023/06/19 04:18:36;;;;;;;6.60;6.00;;;20.30;99.90;;;;;;5120094;27;20243;-76
2023/06/19 04:21:03;;;;;;;5.78;5.35;;;20.20;99.90;;;;;;5097064;27;20235;-78
2023/06/19 04:23:30;;;;;;;6.13;5.63;;;20.20;99.90;;;;;;5113736;27;20240;-78
2023/06/19 04:25:57;;;;;;;6.57;6.07;;;20.20;99.90;;;;;;5100161;27;20231;-78
2023/06/19 04:28:24;;;;;;;5.97;5.47;;;20.30;99.90;;;;;;5103008;27;20212;-77
2023/06/19 04:30:59;;;;;;;6.10;5.60;;;20.30;99.90;;;;;;5105305;27;20228;-77
2023/06/19 04:33:26;;;;;;;6.32;5.82;;;20.30;99.90;;;;;;5108685;27;20224;-77
2023/06/19 04:35:53;;;;;;;6.70;6.20;;;20.20;99.90;;;;;;5103233;27;20253;-78
2023/06/19 04:38:23;;;;;;;6.15;5.65;;;20.20;99.90;;;;;;5113387;27;20240;-77
2023/06/19 04:40:50;;;;;;;6.28;5.82;;;20.20;99.90;;;;;;5105163;27;20574;-78
2023/06/19 04:43:17;;;;;;;6.60;6.07;;;20.20;99.90;;;;;;5105103;27;20257;-77
2023/06/19 04:45:45;;;;;;;6.70;6.10;;;20.10;99.90;;;;;;5107415;27;20815;-78
2023/06/19 04:48:13;;;;;;;6.55;6.05;;;20.10;99.90;;;;;;5109843;27;20307;-78
2023/06/19 04:50:40;;;;;;;6.13;5.63;;;20.10;99.90;;;;;;5108471;27;20253;-78
2023/06/19 04:53:07;;;;;;;6.32;5.82;;;20.10;99.90;;;;;;5103497;27;20273;-77
2023/06/19 04:55:34;;;;;;;6.45;5.85;;;20.10;99.90;;;;;;5109849;27;20197;-77
2023/06/19 04:58:01;;;;;;;7.57;6.97;;;20.10;99.90;;;;;;5102584;27;20216;-77
2023/06/19 05:00:28;;;;;;;6.55;6.05;;;20.10;99.90;;;;;;5106960;27;20204;-77
2023/06/19 05:02:59;;;;;;;6.93;6.25;;;20.10;99.90;;;;;;5104826;27;20292;-77
2023/06/19 05:05:28;;;;;;;6.78;6.28;;;20.10;99.90;;;;;;5102509;27;20261;-77
2023/06/19 05:07:54;;;;;;;6.38;5.88;;;20.30;99.90;;;;;;5109160;27;20244;-78
2023/06/19 05:10:21;;;;;;;6.80;6.30;;;20.40;99.90;;;;;;5105043;27;20503;-76
2023/06/19 05:12:48;;;;;;;6.78;6.18;;;20.50;99.90;;;;;;5104786;27;20742;-76
2023/06/19 05:15:15;;;;;;;6.20;5.70;;;20.70;99.90;;;;;;5103814;27;20796;-78
2023/06/19 05:17:46;;;;;;;6.72;6.22;;;21.00;99.90;;;;;;5107123;27;20270;-78
2023/06/19 05:20:15;;;;;;;6.63;6.00;;;21.20;99.90;;;;;;5101210;27;20261;-77
2023/06/19 05:22:43;;;;;;;6.40;5.90;;;21.40;99.90;;;;;;5104036;27;20575;-77
2023/06/19 05:25:10;;;;;;;7.75;7.05;;;21.60;99.90;;;;;;5103984;27;20220;-78
2023/06/19 05:27:37;;;;;;;7.50;6.90;;;21.60;99.90;;;;;;5102817;27;20212;-77
2023/06/19 05:30:05;;;;;;;7.40;6.80;;;21.60;99.90;;;;;;5101259;27;20797;-78
2023/06/19 05:32:32;;;;;;;7.00;6.40;;;21.60;99.90;;;;;;5106048;27;20230;-78
2023/06/19 05:34:59;;;;;;;7.55;6.95;;;21.60;99.90;;;;;;5104125;28;20238;-79
2023/06/19 05:37:26;;;;;;;7.93;7.25;;;21.60;99.90;;;;;;5105668;28;20224;-77
2023/06/19 05:39:55;;;;;;;8.30;7.60;;;21.60;99.90;;;;;;5100850;28;20228;-78
2023/06/19 05:42:22;;;;;;;8.25;7.55;;;21.60;99.90;;;;;;5106274;28;20236;-78
2023/06/19 05:44:49;;;;;;;7.75;7.15;;;21.70;99.90;;;;;;5107167;28;20199;-78
2023/06/19 05:47:20;;;;;;;7.97;7.38;;;21.80;99.90;;;;;;5104795;28;20193;-79
2023/06/19 05:49:48;;;;;;;8.48;7.68;;;22.00;99.90;;;;;;5102037;28;20215;-77
2023/06/19 05:52:15;;;;;;;8.52;7.82;;;22.20;99.90;;;;;;5105827;28;20211;-78
2023/06/19 05:54:42;;;;;;;8.85;8.15;;;22.10;99.90;;;;;;5107200;28;20252;-78
2023/06/19 05:57:11;;;;;;;8.15;7.35;;;22.20;99.90;;;;;;5103278;28;20204;-79
2023/06/19 05:59:38;;;;;;;7.85;7.15;;;22.20;99.90;;;;;;5114150;27;20236;-78
2023/06/19 06:02:06;;;;;;;8.60;7.57;;;22.30;99.90;;;;;;5110920;27;20200;-77
2023/06/19 06:04:33;;;;;;;8.50;7.70;;;22.30;99.90;;;;;;5110369;27;20193;-79
2023/06/19 06:07:00;;;;;;;9.18;8.27;;;22.40;99.90;;;;;;5111471;27;20204;-77
2023/06/19 06:09:27;;;;;;;8.02;7.32;;;22.50;99.90;;;;;;5124490;27;20246;-78
2023/06/19 06:11:54;;;;;;;8.70;7.90;;;22.70;99.90;;;;;;5117105;27;20306;-79
2023/06/19 06:14:22;;;;;;;9.00;8.20;;;22.80;99.90;;;;;;5110273;27;20308;-78
2023/06/19 06:16:49;;;;;;;8.27;7.57;;;22.90;99.90;;;;;;5108769;27;20260;-76
2023/06/19 06:19:16;;;;;;;8.52;7.72;;;23.00;99.90;;;;;;5111056;27;20288;-77
2023/06/19 06:21:43;;;;;;;8.23;7.53;;;23.00;99.90;;;;;;5112762;27;20242;-78
2023/06/19 06:24:10;;;;;;;9.32;8.52;;;23.00;99.90;;;;;;5104850;27;20199;-78
2023/06/19 06:26:37;;;;;;;8.68;7.97;;;23.10;99.90;;;;;;5108928;27;20201;-78
2023/06/19 06:29:04;;;;;;;9.38;8.57;;;23.10;99.90;;;;;;5115255;27;20311;-78
2023/06/19 06:31:32;;;;;;;8.18;7.57;;;23.20;99.90;;;;;;5114085;27;20209;-78
2023/06/19 06:33:59;;;;;;;9.43;8.63;;;23.30;99.90;;;;;;5122949;27;20221;-79
2023/06/19 06:36:26;;;;;;;8.93;8.13;;;23.30;99.90;;;;;;5117932;27;20605;-78
2023/06/19 06:38:53;;;;;;;9.05;8.23;;;23.30;99.90;;;;;;5113720;27;20281;-79
2023/06/19 06:41:20;;;;;;;7.82;7.03;;;23.20;99.90;;;;;;5116561;27;20215;-78
2023/06/19 06:43:47;;;;;;;9.13;8.25;;;23.30;99.90;;;;;;5107702;27;20220;-79
2023/06/19 06:46:14;;;;;;;9.13;8.32;;;23.50;99.90;;;;;;5112697;27;20767;-77
2023/06/19 06:48:42;;;;;;;11.52;8.80;;;23.60;99.90;;;;;;5108577;27;20219;-77
2023/06/19 06:51:10;;;;;;;8.75;8.00;;;23.80;99.90;;;;;;5118656;27;20225;-78
2023/06/19 06:53:37;;;;;;;8.50;7.80;;;23.90;99.90;;;;;;5108583;27;20205;-78
2023/06/19 06:56:04;;;;;;;7.95;7.28;;;24.00;99.90;;;;;;5113536;27;20670;-79
2023/06/19 06:58:31;;;;;;;8.30;7.60;;;24.20;99.90;;;;;;5111929;27;20500;-79
2023/06/19 07:00:58;;;;;;;8.85;8.15;;;24.50;99.90;;;;;;5112557;27;20615;-79
2023/06/19 07:03:25;;;;;;;8.90;8.10;;;24.70;99.90;;;;;;5109699;28;20728;-79
2023/06/19 07:05:53;;;;;;;9.57;8.77;;;24.70;99.90;;;;;;5110633;27;20200;-79
2023/06/19 07:08:20;;;;;;;9.65;8.85;;;24.80;99.90;;;;;;5104879;27;20269;-79
2023/06/19 07:10:47;;;;;;;9.65;8.75;;;24.80;99.90;;;;;;5111554;27;20222;-79
2023/06/19 07:13:14;;;;;;;8.48;7.78;;;24.80;99.90;;;;;;5105026;27;20686;-78
2023/06/19 07:15:41;;;;;;;8.68;7.97;;;24.80;99.90;;;;;;5115463;27;20311;-78
2023/06/19 07:18:08;;;;;;;10.15;9.15;;;24.90;99.90;;;;;;5114625;27;20814;-79
2023/06/19 07:20:35;;;;;;;9.43;8.63;;;24.90;99.90;;;;;;5116570;27;20238;-78
2023/06/19 07:23:04;;;;;;;9.02;8.23;;;24.90;99.90;;;;;;5103990;27;20249;-79
2023/06/19 07:25:33;;;;;;;9.68;8.80;;;25.00;99.90;;;;;;5114009;27;20197;-79
2023/06/19 07:28:01;;;;;;;7.88;7.18;;;25.10;99.90;;;;;;5106962;27;20249;-78
2023/06/19 07:30:28;;;;;;;8.32;7.60;;;25.20;99.90;;;;;;5114634;27;20205;-81
2023/06/19 07:32:55;;;;;;;8.52;7.82;;;25.40;99.90;;;;;;5111532;27;20645;-78
2023/06/19 07:35:21;;;;;;;8.98;8.18;;;25.40;99.90;;;;;;5108478;27;20240;-79
2023/06/19 07:37:48;;;;;;;8.32;7.63;;;25.40;99.90;;;;;;5112145;27;20586;-78
2023/06/19 07:40:17;;;;;;;8.43;7.72;;;25.50;99.90;;;;;;5114859;27;20235;-77
2023/06/19 07:42:44;;;;;;;8.00;7.40;;;25.50;99.90;;;;;;5105906;27;20224;-78
2023/06/19 07:45:13;;;;;;;8.07;7.32;;;25.60;99.90;;;;;;5115290;27;20196;-78
2023/06/19 07:47:40;;;;;;;8.85;8.15;;;25.90;99.90;;;;;;5108192;27;20224;-79
2023/06/19 07:50:08;;;;;;;8.45;7.75;;;26.00;99.90;;;;;;5104737;27;20189;-77
2023/06/19 07:52:35;;;;;;;8.10;7.40;;;26.00;99.90;;;;;;5107470;27;20247;-77
2023/06/19 07:55:01;;;;;;;8.10;7.40;;;26.00;99.90;;;;;;5102179;27;20904;-78
2023/06/19 07:57:30;;;;;;;9.10;8.20;;;26.20;99.90;;;;;;5097352;27;20284;-79
2023/06/19 07:59:57;;;;;;;8.25;7.45;;;26.20;99.90;;;;;;5105285;27;20596;-79
2023/06/19 08:02:24;;;;;;;8.70;8.00;;;26.20;99.90;;;;;;5113908;27;20197;-76
2023/06/19 08:04:51;;;;;;;8.55;7.63;;;26.40;99.90;;;;;;5100676;27;20189;-77
2023/06/19 08:07:18;;;;;;;8.85;8.05;;;26.40;99.90;;;;;;5104945;27;20195;-78
2023/06/19 08:09:45;;;;;;;8.40;7.70;;;26.40;99.90;;;;;;5101301;27;20189;-77
2023/06/19 08:12:12;;;;;;;8.43;7.55;;;26.50;99.90;;;;;;5102422;27;20211;-78
2023/06/19 08:14:40;;;;;;;8.63;7.82;;;26.60;99.90;;;;;;5103895;27;20294;-78
2023/06/19 08:17:07;;;;;;;7.88;7.18;;;26.50;99.90;;;;;;5106805;27;20204;-78
2023/06/19 08:19:34;;;;;;;9.07;8.20;;;26.70;99.90;;;;;;5101596;27;20192;-77
2023/06/19 08:22:02;;;;;;;8.85;7.93;;;26.70;99.90;;;;;;5102145;27;20232;-77
2023/06/19 08:24:29;;;;;;;8.75;8.00;;;26.80;99.90;;;;;;5104161;27;20201;-78
2023/06/19 08:26:56;;;;;;;9.30;8.50;;;26.70;99.90;;;;;;5106154;27;20222;-78
2023/06/19 08:29:23;;;;;;;8.32;7.63;;;26.80;99.90;;;;;;5110148;27;20255;-77
2023/06/19 08:31:51;;;;;;;8.30;7.57;;;27.00;99.90;;;;;;5104140;27;20956;-78
2023/06/19 08:34:18;;;;;;;8.20;7.50;;;27.20;99.90;;;;;;5101687;27;20647;-77
2023/06/19 08:36:45;;;;;;;8.77;7.97;;;27.40;99.90;;;;;;5103385;27;20621;-77
2023/06/19 08:39:12;;;;;;;8.95;8.20;;;27.50;99.90;;;;;;5100047;27;20302;-77
2023/06/19 08:41:41;;;;;;;8.27;7.57;;;27.70;99.90;;;;;;5096128;27;20308;-77
2023/06/19 08:44:08;;;;;;;8.82;8.02;;;27.90;99.90;;;;;;5105417;27;20225;-79
2023/06/19 08:46:36;;;;;;;8.80;8.00;;;28.00;99.90;;;;;;5104191;27;20192;-78
2023/06/19 08:49:06;;;;;;;8.43;7.63;;;27.90;99.90;;;;;;5099539;27;20227;-77
2023/06/19 08:51:33;;;;;;;9.23;8.43;;;28.00;99.90;;;;;;5096522;27;20361;-77
2023/06/19 08:54:04;;;;;;;8.30;7.60;;;27.90;99.90;;;;;;5098108;27;20820;-77
2023/06/19 08:56:33;;;;;;;8.65;7.75;;;27.90;99.90;;;;;;5096866;27;20993;-78
2023/06/19 08:59:11;;;;;;;9.07;8.38;;;28.00;99.90;;;;;;5101827;27;20220;-76
2023/06/19 09:01:39;;;;;;;8.43;7.68;;;27.90;99.90;;;;;;5098761;27;20289;-77
2023/06/19 09:04:12;;;;;;;8.30;7.50;;;28.00;99.90;;;;;;5102232;27;20250;-77
2023/06/19 09:06:50;;;;;;;7.72;7.03;;;28.00;99.90;;;;;;5103136;27;20209;-77
2023/06/19 09:09:17;;;;;;;8.70;8.00;;;28.30;99.90;;;;;;5093852;27;21801;-77
2023/06/19 09:11:44;;;;;;;8.48;7.68;;;28.50;99.90;;;;;;5096378;27;20209;-77
2023/06/19 09:14:11;;;;;;;8.30;7.50;;;28.70;99.90;;;;;;5104050;27;20574;-77
2023/06/19 09:16:40;;;;;;;9.07;8.27;;;28.70;99.90;;;;;;5097267;27;20300;-77
2023/06/19 09:19:07;;;;;;;8.13;7.47;;;28.60;99.90;;;;;;5102479;27;20266;-77
2023/06/19 09:21:37;;;;;;;8.18;7.45;;;28.50;99.90;;;;;;5099065;27;20196;-78
2023/06/19 09:24:06;;;;;;;7.60;7.00;;;28.60;99.90;;;;;;5097063;27;20229;-78
2023/06/19 09:26:33;;;;;;;7.43;6.82;;;28.70;99.90;;;;;;5097151;27;20304;-77
2023/06/19 09:29:10;;;;;;;7.63;7.03;;;28.80;99.90;;;;;;5096828;27;20303;-78
2023/06/19 09:31:37;;;;;;;7.93;7.22;;;28.60;99.90;;;;;;5088352;28;20224;-79
2023/06/19 09:34:05;;;;;;;8.30;7.45;;;28.70;99.90;;;;;;5093581;28;20193;-79
2023/06/19 09:36:33;;;;;;;7.88;7.18;;;28.80;99.90;;;;;;5091491;28;20239;-77
2023/06/19 09:39:03;;;;;;;8.13;7.32;;;28.80;99.90;;;;;;5094015;28;20797;-79
2023/06/19 09:41:31;;;;;;;8.70;7.63;;;28.80;99.90;;;;;;5096037;28;20355;-77
2023/06/19 09:43:59;;;;;;;7.18;6.57;;;28.80;99.90;;;;;;5093441;28;20201;-77
2023/06/19 09:46:30;;;;;;;7.90;6.97;;;29.00;99.90;;;;;;5094171;28;20201;-75
2023/06/19 09:49:01;;;;;;;7.30;6.70;;;29.00;99.90;;;;;;5096732;28;20966;-76
2023/06/19 09:51:32;;;;;;;7.45;6.85;;;29.20;99.90;;;;;;5097452;28;20242;-78
2023/06/19 09:54:00;;;;;;;7.47;6.78;;;29.30;99.90;;;;;;5095523;28;20731;-77
2023/06/19 09:56:29;;;;;;;7.00;6.45;;;29.30;99.90;;;;;;5093186;28;20213;-76
2023/06/19 09:59:00;;;;;;;7.80;7.13;;;29.40;99.90;;;;;;5094476;28;20307;-76
2023/06/19 10:01:28;;;;;;;7.25;6.65;;;29.50;99.90;;;;;;5099481;28;20236;-76
2023/06/19 10:04:06;;;;;;;7.32;6.22;;;29.60;99.90;;;;;;5103715;27;20208;-76
2023/06/19 10:06:33;;;;;;;7.13;6.43;;;29.60;99.90;;;;;;5103880;27;20328;-76
2023/06/19 10:09:08;;;;;;;7.15;6.55;;;29.90;99.90;;;;;;5093155;28;20216;-77
2023/06/19 10:11:53;;;;;;;6.47;5.97;;;29.80;99.90;;;;;;5096913;28;20227;-78
2023/06/19 10:14:20;;;;;;;7.15;6.55;;;29.70;99.90;;;;;;5096554;28;20197;-77
2023/06/19 10:16:47;;;;;;;7.35;6.75;;;29.70;99.90;;;;;;5096152;28;20213;-79
2023/06/19 10:19:16;;;;;;;7.00;6.40;;;29.60;99.90;;;;;;5099073;28;20224;-78
2023/06/19 10:21:48;;;;;;;7.30;6.70;;;29.60;99.90;;;;;;5098127;28;20209;-78
2023/06/19 10:24:18;;;;;;;6.25;5.75;;;29.60;99.90;;;;;;5101216;28;20193;-78
2023/06/19 10:26:56;;;;;;;7.22;6.53;;;29.80;99.90;;;;;;5102335;28;20675;-79
2023/06/19 10:29:25;;;;;;;6.53;6.03;;;30.00;99.90;;;;;;5099655;28;20905;-78
2023/06/19 10:31:52;;;;;;;6.43;5.93;;;29.90;99.90;;;;;;5099302;27;20205;-78
2023/06/19 10:34:19;;;;;;;6.45;5.95;;;29.90;99.90;;;;;;5101405;28;20291;-78
2023/06/19 10:36:46;;;;;;;6.30;5.70;;;30.00;99.90;;;;;;5098533;28;20726;-78
2023/06/19 10:39:14;;;;;;;7.28;6.68;;;30.10;99.90;;;;;;5097832;27;20766;-78
2023/06/19 10:41:43;;;;;;;6.97;6.40;;;30.10;99.90;;;;;;5102844;28;20288;-77
2023/06/19 10:44:12;;;;;;;6.10;5.70;;;30.10;99.90;;;;;;5098329;27;20196;-78
2023/06/19 10:46:41;;;;;;;6.97;6.38;;;30.20;99.90;;;;;;5112030;27;20200;-78
2023/06/19 10:49:13;;;;;;;6.43;5.90;;;30.40;99.90;;;;;;5105391;27;20244;-79
2023/06/19 10:51:41;;;;;;;6.75;6.25;;;30.30;99.90;;;;;;5100316;27;20284;-79
2023/06/19 10:54:09;;;;;;;7.70;6.53;;;30.10;99.90;;;;;;5107128;27;20204;-78
2023/06/19 10:56:36;;;;;;;6.63;6.03;;;30.00;99.90;;;;;;5103030;27;20221;-77
2023/06/19 10:59:06;;;;;;;7.45;6.82;;;30.00;99.90;;;;;;5096776;27;20328;-78
2023/06/19 11:01:37;;;;;;;7.85;6.78;;;30.00;99.90;;;;;;5098810;27;20208;-78
2023/06/19 11:04:11;;;;;;;6.82;6.22;;;29.90;99.90;;;;;;5098856;27;20205;-77
2023/06/19 11:06:39;;;;;;;6.55;6.05;;;30.00;99.90;;;;;;5100764;27;20232;-79
2023/06/19 11:09:06;;;;;;;6.38;5.88;;;30.40;99.90;;;;;;5100307;27;20213;-79
2023/06/19 11:11:40;;;;;;;7.25;6.65;;;30.60;99.90;;;;;;5097293;27;20220;-77
2023/06/19 11:14:08;;;;;;;6.60;6.10;;;30.80;99.90;;;;;;5100838;27;20718;-78
2023/06/19 11:16:36;;;;;;;6.65;6.10;;;30.90;99.90;;;;;;5098584;27;22063;-78
2023/06/19 11:19:04;;;;;;;6.32;5.72;;;30.90;99.90;;;;;;5104064;27;20220;-79
2023/06/19 11:21:34;;;;;;;6.22;5.63;;;31.30;99.90;;;;;;5096809;27;20196;-79
2023/06/19 11:24:01;;;;;;;6.25;5.68;;;31.70;99.90;;;;;;5099077;27;20205;-78
2023/06/19 11:26:28;;;;;;;6.60;6.10;;;32.00;99.90;;;;;;5099884;27;20582;-78
2023/06/19 11:28:55;;;;;;;6.30;5.80;;;32.10;99.90;;;;;;5100240;28;20220;-78
2023/06/19 11:31:27;;;;;;;6.70;6.20;;;32.00;99.90;;;;;;5096834;28;20209;-79
2023/06/19 11:33:58;;;;;;;7.18;6.22;;;31.90;99.90;;;;;;5104110;27;21247;-79
2023/06/19 11:36:26;;;;;;;6.53;5.97;;;31.80;99.90;;;;;;5113039;27;20243;-80
2023/06/19 11:38:54;;;;;;;7.28;6.70;;;31.90;99.90;;;;;;5106991;27;20221;-80
2023/06/19 11:41:28;;;;;;;7.18;6.60;;;32.10;99.90;;;;;;5098756;27;20230;-76
2023/06/19 11:44:05;;;;;;;7.55;6.85;;;32.00;99.90;;;;;;5100755;27;20919;-76
2023/06/19 11:46:33;;;;;;;6.88;6.28;;;31.70;99.90;;;;;;5101522;27;20229;-77
2023/06/19 11:49:12;;;;;;;6.68;6.07;;;31.50;99.90;;;;;;5098759;27;20301;-77
2023/06/19 11:51:39;;;;;;;6.85;6.25;;;31.50;99.90;;;;;;5091669;28;20212;-77
2023/06/19 11:54:09;;;;;;;7.03;6.43;;;31.30;99.90;;;;;;5096657;28;20260;-76
2023/06/19 11:56:36;;;;;;;6.57;6.03;;;31.10;99.90;;;;;;5096059;27;20271;-78
2023/06/19 11:59:03;;;;;;;6.13;5.63;;;30.90;99.90;;;;;;5101951;27;20221;-76
2023/06/19 12:01:31;;;;;;;6.18;5.60;;;30.90;99.90;;;;;;5096581;27;20207;-77
2023/06/19 12:03:58;;;;;;;6.47;5.88;;;30.80;99.90;;;;;;5100468;27;20211;-77
2023/06/19 12:06:25;;;;;;;7.47;6.38;;;30.90;99.90;;;;;;5099521;27;20668;-77
2023/06/19 12:08:52;;;;;;;6.22;5.72;;;30.80;99.90;;;;;;5097135;27;20239;-76
2023/06/19 12:11:21;;;;;;;6.40;5.80;;;31.00;99.90;;;;;;5098443;27;20233;-78
2023/06/19 12:13:48;;;;;;;6.43;5.93;;;31.00;99.90;;;;;;5098795;27;20196;-77
2023/06/19 12:16:16;;;;;;;6.60;6.10;;;31.00;99.90;;;;;;5099681;28;20718;-78
2023/06/19 12:18:43;;;;;;;6.90;6.05;;;31.10;99.90;;;;;;5100910;27;20232;-76
2023/06/19 12:21:10;;;;;;;7.55;6.28;;;31.30;99.90;;;;;;5095368;28;20356;-76
2023/06/19 12:23:37;;;;;;;6.93;6.30;;;31.20;99.90;;;;;;5102062;27;20236;-76
2023/06/19 12:26:04;;;;;;;7.20;6.38;;;31.00;99.90;;;;;;5098889;27;20910;-78
2023/06/19 12:28:32;;;;;;;7.28;6.63;;;31.00;99.90;;;;;;5102221;27;20243;-78
2023/06/19 12:31:00;;;;;;;7.25;6.47;;;31.00;99.90;;;;;;5099514;27;20200;-76
2023/06/19 12:33:32;;;;;;;9.07;6.68;;;30.90;99.90;;;;;;5092792;27;20655;-77
2023/06/19 12:36:00;;;;;;;7.68;6.97;;;30.80;99.90;;;;;;5094695;27;22343;-78
2023/06/19 12:38:27;;;;;;;7.10;6.32;;;30.60;99.90;;;;;;5090138;27;20221;-76
2023/06/19 12:40:54;;;;;;;7.07;6.43;;;30.60;99.90;;;;;;5101339;27;20201;-77
2023/06/19 12:43:21;;;;;;;6.60;6.00;;;30.80;99.90;;;;;;5103409;27;20228;-78
2023/06/19 12:45:49;;;;;;;6.80;6.30;;;31.00;99.90;;;;;;5094616;27;20244;-76
2023/06/19 12:48:17;;;;;;;8.45;7.18;;;31.10;99.90;;;;;;5092755;27;20307;-76
2023/06/19 12:50:44;;;;;;;8.00;7.30;;;31.10;99.90;;;;;;5098485;27;20258;-77